KBID

Block Island State Airport

Block Island, Rhode Island, USA
METAR KBID 151456Z AUTO 27010KT 10SM SCT015 BKN022 24/21 A2987 RMK AO2 SLP115 6//// T02440211 52003
Observed Flight Rules
Aug-15 @ 14:56 UTC (5 minutes ago) Marginal Visual Flight Rules
Wind Visibility Clouds
270° at 10 knots 10 miles
  • Scattered at 1,500' AGL
  • Broken at 2,200' AGL
Temperatures Readings
Current 24°C / 75°F
Dewpoint 21°C / 70°F
Humidity 83%
Altimeter 29.87" Hg
Pressure 1011.5 hPa
Elevation 33
METAR KBID 151456Z AUTO 27010KT 10SM SCT015 BKN022 24/21 A2987 RMK AO2 SLP115 6//// T02440211 52003
Observed Flight Rules
Aug-15 @ 14:56 UTC
(5 minutes ago)
MVFR
Wind Visibility
270° at 10 knots 10 miles
Clouds
  • Scattered at 1,500' AGL
  • Broken at 2,200' AGL
Temperature Dewpoint
24°C / 75°F 21°C / 70°F
Humidity Altimeter Pressure
83% 29.87" Hg 1011.5 hPa